Time;durP1;ratioP1;P1;durP2;ratioP2;P2;SDS_P1;SDS_P2;PMS_P1;PMS_P2;Temp;Humidity;BMP_temperature;BMP_pressure;BME280_temperature;BME280_humidity;BME280_pressure;Samples;Min_cycle;Max_cycle;Signal;HPM_P1;HPM_P2
2023/05/30 00:01:35;;;;;;;4.30;1.52;;;;;;;;;;5024506;28;20095;-65
2023/05/30 00:04:01;;;;;;;1.58;1.20;;;;;;;;;;5022377;28;20062;-65
2023/05/30 00:06:27;;;;;;;2.05;1.05;;;;;;;;;;5024916;28;20098;-65
2023/05/30 00:08:53;;;;;;;3.15;1.33;;;;;;;;;;5020592;28;20041;-66
2023/05/30 00:11:19;;;;;;;2.28;1.85;;;;;;;;;;5024789;28;20049;-66
2023/05/30 00:13:46;;;;;;;1.23;1.13;;;;;;;;;;5023820;28;20088;-66
2023/05/30 00:16:13;;;;;;;2.83;1.30;;;;;;;;;;5023970;28;20136;-66
2023/05/30 00:18:40;;;;;;;2.28;1.17;;;;;;;;;;5018939;28;20048;-66
2023/05/30 00:21:06;;;;;;;1.20;1.00;;;;;;;;;;5023540;28;20077;-65
2023/05/30 00:23:33;;;;;;;1.58;0.80;;;;;;;;;;5024073;28;20145;-66
2023/05/30 00:25:59;;;;;;;2.35;0.90;;;;;;;;;;5023405;28;20041;-66
2023/05/30 00:28:26;;;;;;;3.35;1.33;;;;;;;;;;5023113;28;20136;-65
2023/05/30 00:30:53;;;;;;;1.83;0.90;;;;;;;;;;5023350;28;20497;-65
2023/05/30 00:33:19;;;;;;;1.48;0.88;;;;;;;;;;5024466;28;20041;-63
2023/05/30 00:35:45;;;;;;;1.27;0.93;;;;;;;;;;5014800;28;20045;-63
2023/05/30 00:38:11;;;;;;;1.08;0.90;;;;;;;;;;5020321;28;20119;-63
2023/05/30 00:40:37;;;;;;;2.40;0.82;;;;;;;;;;5024246;28;20053;-63
2023/05/30 00:43:03;;;;;;;2.92;1.20;;;;;;;;;;5022011;28;20091;-63
2023/05/30 00:45:29;;;;;;;1.80;1.02;;;;;;;;;;5024397;28;20095;-63
2023/05/30 00:47:55;;;;;;;0.88;0.60;;;;;;;;;;5023534;28;20121;-63
2023/05/30 00:50:26;;;;;;;1.45;0.85;;;;;;;;;;5023826;28;20224;-63
2023/05/30 00:52:52;;;;;;;0.80;0.73;;;;;;;;;;5023660;28;20049;-63
2023/05/30 00:55:18;;;;;;;3.38;1.13;;;;;;;;;;5024272;28;20041;-65
2023/05/30 00:57:44;;;;;;;0.95;0.82;;;;;;;;;;5022827;28;20456;-65
2023/05/30 01:00:12;;;;;;;2.80;1.00;;;;;;;;;;5004644;28;20049;-65
2023/05/30 01:02:39;;;;;;;1.98;1.08;;;;;;;;;;5006147;28;20065;-66
2023/05/30 01:05:05;;;;;;;4.07;1.50;;;;;;;;;;5022553;28;20081;-63
2023/05/30 01:07:34;;;;;;;1.48;1.08;;;;;;;;;;5024432;28;20057;-63
2023/05/30 01:10:00;;;;;;;2.78;1.20;;;;;;;;;;5020140;28;20049;-63
2023/05/30 01:12:51;;;;;;;1.50;1.00;;;;;;;;;;5023885;28;20052;-64
2023/05/30 01:15:27;;;;;;;3.42;1.33;;;;;;;;;;5023231;28;20053;-64
2023/05/30 01:17:57;;;;;;;1.45;0.90;;;;;;;;;;5018674;28;20386;-65
2023/05/30 01:20:24;;;;;;;1.17;1.08;;;;;;;;;;5005052;28;20057;-65
2023/05/30 01:23:02;;;;;;;2.05;0.95;;;;;;;;;;5022928;28;20037;-65
2023/05/30 01:25:36;;;;;;;2.03;1.00;;;;;;;;;;5023626;28;20041;-65
2023/05/30 01:28:06;;;;;;;0.73;0.57;;;;;;;;;;5005674;28;20500;-66
2023/05/30 01:30:33;;;;;;;0.60;0.60;;;;;;;;;;5026862;28;20052;-66
2023/05/30 01:33:00;;;;;;;2.70;0.57;;;;;;;;;;5026649;28;20037;-65
2023/05/30 01:35:26;;;;;;;1.98;0.73;;;;;;;;;;5027794;28;20087;-65
2023/05/30 01:37:52;;;;;;;0.60;0.60;;;;;;;;;;5026425;28;20493;-65
2023/05/30 01:40:21;;;;;;;2.10;0.68;;;;;;;;;;5027066;28;20045;-65
2023/05/30 01:42:49;;;;;;;0.57;0.57;;;;;;;;;;5026764;28;20041;-65
2023/05/30 01:45:27;;;;;;;1.13;0.98;;;;;;;;;;5027189;28;20091;-65
2023/05/30 01:47:59;;;;;;;1.55;1.00;;;;;;;;;;5023358;28;20041;-65
2023/05/30 01:50:29;;;;;;;1.83;0.90;;;;;;;;;;5027452;28;20067;-65
2023/05/30 01:52:59;;;;;;;1.40;1.20;;;;;;;;;;5026353;28;20490;-66
2023/05/30 01:55:26;;;;;;;1.67;0.90;;;;;;;;;;5010120;28;20117;-65
2023/05/30 01:57:53;;;;;;;0.98;0.73;;;;;;;;;;5026534;28;20049;-65
2023/05/30 02:00:19;;;;;;;0.80;0.77;;;;;;;;;;5025231;28;20091;-65
2023/05/30 02:02:46;;;;;;;0.75;0.70;;;;;;;;;;5027108;28;20124;-66
2023/05/30 02:05:12;;;;;;;0.82;0.75;;;;;;;;;;5027118;28;20465;-65
2023/05/30 02:07:38;;;;;;;1.75;0.55;;;;;;;;;;5026467;28;20044;-65
2023/05/30 02:10:05;;;;;;;1.17;0.60;;;;;;;;;;5026422;28;20037;-65
2023/05/30 02:12:31;;;;;;;1.40;0.60;;;;;;;;;;5009119;28;20045;-65
2023/05/30 02:14:57;;;;;;;0.85;0.50;;;;;;;;;;5025967;28;20136;-65
2023/05/30 02:17:25;;;;;;;0.50;0.40;;;;;;;;;;5026801;28;20049;-66
2023/05/30 02:19:51;;;;;;;0.40;0.40;;;;;;;;;;5025981;28;20041;-65
2023/05/30 02:22:17;;;;;;;1.25;0.47;;;;;;;;;;5022882;28;20468;-65
2023/05/30 02:24:44;;;;;;;0.40;0.40;;;;;;;;;;5027206;28;20076;-65
2023/05/30 02:27:10;;;;;;;0.82;0.60;;;;;;;;;;5025697;28;20045;-65
2023/05/30 02:29:36;;;;;;;0.52;0.40;;;;;;;;;;5022712;28;20128;-65
2023/05/30 02:32:02;;;;;;;0.77;0.65;;;;;;;;;;5025869;28;20037;-65
2023/05/30 02:34:28;;;;;;;1.58;0.88;;;;;;;;;;5026229;28;20543;-65
2023/05/30 02:36:56;;;;;;;1.02;0.60;;;;;;;;;;5025206;28;20034;-65
2023/05/30 02:39:23;;;;;;;0.52;0.50;;;;;;;;;;5026510;28;20061;-65
2023/05/30 02:41:48;;;;;;;1.85;0.47;;;;;;;;;;5025401;28;20037;-65
2023/05/30 02:44:15;;;;;;;0.52;0.50;;;;;;;;;;5026066;28;20049;-65
2023/05/30 02:46:41;;;;;;;1.75;0.70;;;;;;;;;;5008524;28;20096;-65
2023/05/30 02:49:08;;;;;;;0.75;0.40;;;;;;;;;;5023924;28;20142;-66
2023/05/30 02:51:35;;;;;;;2.00;0.55;;;;;;;;;;5023687;28;20056;-65
2023/05/30 02:54:01;;;;;;;1.10;0.57;;;;;;;;;;5024155;28;20048;-65
2023/05/30 02:56:28;;;;;;;2.35;0.75;;;;;;;;;;5026245;28;20099;-66
2023/05/30 02:58:56;;;;;;;1.15;0.70;;;;;;;;;;5018117;28;20034;-65
2023/05/30 03:01:22;;;;;;;0.60;0.60;;;;;;;;;;5026189;28;20099;-65
2023/05/30 03:03:48;;;;;;;0.60;0.60;;;;;;;;;;5024876;28;20101;-65
2023/05/30 03:06:14;;;;;;;2.10;0.85;;;;;;;;;;5026106;28;20045;-66
2023/05/30 03:08:42;;;;;;;5.20;1.08;;;;;;;;;;5025032;28;20041;-65
2023/05/30 03:11:08;;;;;;;1.13;1.02;;;;;;;;;;5006940;28;21032;-65
2023/05/30 03:13:34;;;;;;;0.98;0.60;;;;;;;;;;5025241;28;20037;-65
2023/05/30 03:16:01;;;;;;;1.45;0.77;;;;;;;;;;5022983;28;20159;-65
2023/05/30 03:18:27;;;;;;;2.28;0.70;;;;;;;;;;5022444;28;20054;-65
2023/05/30 03:20:53;;;;;;;0.90;0.60;;;;;;;;;;5025172;28;20044;-65
2023/05/30 03:23:19;;;;;;;0.90;0.90;;;;;;;;;;5025706;28;20041;-66
2023/05/30 03:25:45;;;;;;;0.45;0.40;;;;;;;;;;5022934;28;20513;-65
2023/05/30 03:28:11;;;;;;;1.95;0.60;;;;;;;;;;5024813;28;20505;-65
2023/05/30 03:30:37;;;;;;;0.63;0.47;;;;;;;;;;5025478;28;20087;-65
2023/05/30 03:33:04;;;;;;;1.42;0.60;;;;;;;;;;5023838;28;20079;-65
2023/05/30 03:35:30;;;;;;;1.88;0.57;;;;;;;;;;5021734;28;20389;-65
2023/05/30 03:37:56;;;;;;;0.93;0.68;;;;;;;;;;5024755;28;20056;-65
2023/05/30 03:40:22;;;;;;;1.60;0.70;;;;;;;;;;5025029;28;20040;-65
2023/05/30 03:42:48;;;;;;;1.13;0.57;;;;;;;;;;5024986;28;20037;-65
2023/05/30 03:45:14;;;;;;;0.50;0.40;;;;;;;;;;5025293;28;20128;-65
2023/05/30 03:47:40;;;;;;;1.13;0.70;;;;;;;;;;5024207;28;20132;-65
2023/05/30 03:50:06;;;;;;;1.05;0.60;;;;;;;;;;5023847;28;20478;-65
2023/05/30 03:52:32;;;;;;;1.25;0.90;;;;;;;;;;5024475;28;20091;-65
2023/05/30 03:54:58;;;;;;;0.70;0.40;;;;;;;;;;5023542;28;20033;-66
2023/05/30 03:57:24;;;;;;;1.88;0.80;;;;;;;;;;5025025;28;20056;-65
2023/05/30 03:59:50;;;;;;;0.57;0.57;;;;;;;;;;5023375;28;20033;-65
2023/05/30 04:02:16;;;;;;;1.27;0.82;;;;;;;;;;5023685;28;20475;-66
2023/05/30 04:04:42;;;;;;;0.98;0.60;;;;;;;;;;5024781;28;20053;-65
2023/05/30 04:07:08;;;;;;;1.00;0.60;;;;;;;;;;5023116;28;20401;-65
2023/05/30 04:09:34;;;;;;;1.08;0.70;;;;;;;;;;5005562;28;20116;-65
2023/05/30 04:12:01;;;;;;;0.85;0.70;;;;;;;;;;5021811;28;20577;-66
2023/05/30 04:14:27;;;;;;;0.75;0.52;;;;;;;;;;5023450;28;20037;-65
2023/05/30 04:16:53;;;;;;;0.60;0.60;;;;;;;;;;5023811;28;20041;-65
2023/05/30 04:19:19;;;;;;;1.15;0.60;;;;;;;;;;5023937;28;20041;-65
2023/05/30 04:21:45;;;;;;;1.58;0.75;;;;;;;;;;5023516;28;20570;-65
2023/05/30 04:24:12;;;;;;;0.73;0.60;;;;;;;;;;5023910;28;20092;-65
2023/05/30 04:26:38;;;;;;;1.20;0.57;;;;;;;;;;5022737;28;20192;-65
2023/05/30 04:29:04;;;;;;;0.60;0.55;;;;;;;;;;5022965;28;20323;-65
2023/05/30 04:31:30;;;;;;;1.35;0.88;;;;;;;;;;5024366;28;20930;-65
2023/05/30 04:33:56;;;;;;;1.77;0.98;;;;;;;;;;5023788;28;20042;-65
2023/05/30 04:36:23;;;;;;;0.88;0.68;;;;;;;;;;5024315;28;20038;-66
2023/05/30 04:38:51;;;;;;;0.98;0.63;;;;;;;;;;5023897;28;20041;-66
2023/05/30 04:41:24;;;;;;;2.08;1.00;;;;;;;;;;5022472;28;20047;-66
2023/05/30 04:43:54;;;;;;;1.85;0.77;;;;;;;;;;5018900;28;20040;-66
2023/05/30 04:46:23;;;;;;;1.83;1.10;;;;;;;;;;5020459;28;20049;-66
2023/05/30 04:48:53;;;;;;;2.85;0.90;;;;;;;;;;5022124;28;20521;-65
2023/05/30 04:51:28;;;;;;;0.82;0.65;;;;;;;;;;5023367;28;20132;-65
2023/05/30 04:53:54;;;;;;;1.25;1.05;;;;;;;;;;5023445;28;20033;-65
2023/05/30 04:56:20;;;;;;;2.13;1.10;;;;;;;;;;5023656;28;20466;-65
2023/05/30 04:58:48;;;;;;;1.92;1.08;;;;;;;;;;5024063;28;20101;-65
2023/05/30 05:01:14;;;;;;;2.03;0.85;;;;;;;;;;5022665;28;20171;-66
2023/05/30 05:03:40;;;;;;;0.77;0.70;;;;;;;;;;5019886;28;20053;-66
2023/05/30 05:06:07;;;;;;;3.90;0.80;;;;;;;;;;5025097;28;20413;-66
2023/05/30 05:08:36;;;;;;;0.82;0.82;;;;;;;;;;5025126;28;20041;-66
2023/05/30 05:11:03;;;;;;;1.17;0.80;;;;;;;;;;5026829;28;20045;-66
2023/05/30 05:13:29;;;;;;;0.80;0.52;;;;;;;;;;5027068;28;20041;-66
2023/05/30 05:15:55;;;;;;;1.65;0.55;;;;;;;;;;5009758;28;20140;-66
2023/05/30 05:18:21;;;;;;;1.48;0.60;;;;;;;;;;5027334;28;20108;-65
2023/05/30 05:20:48;;;;;;;1.55;0.80;;;;;;;;;;5027505;28;20231;-65
2023/05/30 05:23:14;;;;;;;2.15;0.90;;;;;;;;;;5020532;28;20030;-66
2023/05/30 05:25:40;;;;;;;2.20;1.00;;;;;;;;;;5027483;28;20041;-66
2023/05/30 05:28:06;;;;;;;2.55;1.02;;;;;;;;;;5026772;28;20041;-66
2023/05/30 05:30:32;;;;;;;0.77;0.60;;;;;;;;;;5028092;28;20033;-65
2023/05/30 05:32:58;;;;;;;1.10;0.80;;;;;;;;;;5026420;28;20033;-66
2023/05/30 05:35:24;;;;;;;0.93;0.63;;;;;;;;;;5027739;28;20044;-65
2023/05/30 05:37:50;;;;;;;0.93;0.52;;;;;;;;;;5027074;28;20033;-65
2023/05/30 05:40:16;;;;;;;3.35;1.33;;;;;;;;;;5026396;28;20041;-65
2023/05/30 05:42:43;;;;;;;2.15;1.40;;;;;;;;;;5027630;28;20037;-65
2023/05/30 05:45:09;;;;;;;1.92;0.82;;;;;;;;;;5020965;28;20095;-65
2023/05/30 05:47:35;;;;;;;1.42;0.68;;;;;;;;;;5018713;28;20393;-65
2023/05/30 05:50:01;;;;;;;2.72;1.02;;;;;;;;;;5026174;28;20553;-65
2023/05/30 05:52:27;;;;;;;0.70;0.60;;;;;;;;;;5026904;28;20129;-65
2023/05/30 05:54:53;;;;;;;1.08;0.70;;;;;;;;;;5018895;28;20033;-65
2023/05/30 05:57:19;;;;;;;0.65;0.63;;;;;;;;;;5024210;28;20052;-65
2023/05/30 05:59:45;;;;;;;0.52;0.50;;;;;;;;;;5015975;28;20048;-65
2023/05/30 06:02:12;;;;;;;1.17;0.90;;;;;;;;;;5026891;28;20061;-65
2023/05/30 06:04:38;;;;;;;1.90;0.80;;;;;;;;;;5027218;28;20512;-65
2023/05/30 06:07:04;;;;;;;1.50;0.93;;;;;;;;;;5019421;28;20048;-65
2023/05/30 06:09:31;;;;;;;0.95;0.85;;;;;;;;;;5022312;28;20048;-65
2023/05/30 06:12:03;;;;;;;1.73;0.93;;;;;;;;;;5026302;28;20102;-65
2023/05/30 06:14:29;;;;;;;2.40;0.70;;;;;;;;;;5026529;28;20045;-65
2023/05/30 06:16:55;;;;;;;0.82;0.68;;;;;;;;;;5026157;28;20036;-65
2023/05/30 06:19:21;;;;;;;2.25;1.00;;;;;;;;;;5026696;28;20033;-65
2023/05/30 06:21:47;;;;;;;0.85;0.75;;;;;;;;;;5025970;28;20311;-66
2023/05/30 06:24:13;;;;;;;1.67;0.85;;;;;;;;;;5026258;28;20701;-66
2023/05/30 06:26:39;;;;;;;1.05;0.70;;;;;;;;;;5026653;28;20033;-65
2023/05/30 06:29:05;;;;;;;0.50;0.50;;;;;;;;;;5025206;28;20132;-65
2023/05/30 06:31:31;;;;;;;1.35;0.80;;;;;;;;;;5026353;28;20764;-65
2023/05/30 06:33:57;;;;;;;1.70;1.02;;;;;;;;;;4998300;28;20049;-66
2023/05/30 06:36:23;;;;;;;0.80;0.63;;;;;;;;;;5022240;28;20140;-65
2023/05/30 06:38:51;;;;;;;0.52;0.52;;;;;;;;;;5025793;28;20038;-66
2023/05/30 06:41:17;;;;;;;0.68;0.68;;;;;;;;;;5024731;28;20060;-66
2023/05/30 06:43:43;;;;;;;0.80;0.60;;;;;;;;;;5026744;28;20041;-65
2023/05/30 06:46:09;;;;;;;0.88;0.60;;;;;;;;;;5020303;28;20052;-65
2023/05/30 06:48:35;;;;;;;1.05;0.63;;;;;;;;;;5023351;28;20029;-65
2023/05/30 06:51:01;;;;;;;0.77;0.55;;;;;;;;;;5023267;28;20110;-65
2023/05/30 06:53:27;;;;;;;0.60;0.50;;;;;;;;;;5024534;28;20041;-65
2023/05/30 06:55:53;;;;;;;0.75;0.60;;;;;;;;;;5025088;28;20076;-65
2023/05/30 06:58:19;;;;;;;0.60;0.40;;;;;;;;;;5021705;28;20041;-65
2023/05/30 07:00:45;;;;;;;1.10;0.40;;;;;;;;;;5019374;28;20077;-65
2023/05/30 07:03:11;;;;;;;0.60;0.30;;;;;;;;;;4999979;28;20557;-66
2023/05/30 07:05:37;;;;;;;0.63;0.32;;;;;;;;;;5026081;28;20124;-65
2023/05/30 07:08:03;;;;;;;0.50;0.50;;;;;;;;;;5021134;28;20375;-65
2023/05/30 07:10:29;;;;;;;0.75;0.47;;;;;;;;;;5020718;28;20037;-65
2023/05/30 07:12:55;;;;;;;0.82;0.52;;;;;;;;;;5007552;28;20091;-65
2023/05/30 07:15:21;;;;;;;1.90;0.60;;;;;;;;;;5022400;28;20624;-65
2023/05/30 07:17:47;;;;;;;0.80;0.50;;;;;;;;;;5015825;28;20081;-65
2023/05/30 07:20:14;;;;;;;0.70;0.32;;;;;;;;;;5022196;28;20069;-65
2023/05/30 07:22:40;;;;;;;0.40;0.40;;;;;;;;;;5025877;28;20038;-65
2023/05/30 07:25:06;;;;;;;0.95;0.57;;;;;;;;;;5024595;28;20603;-65
2023/05/30 07:27:32;;;;;;;0.88;0.50;;;;;;;;;;5022153;28;20037;-66
2023/05/30 07:29:58;;;;;;;0.45;0.45;;;;;;;;;;5017846;28;20041;-65
2023/05/30 07:32:24;;;;;;;0.52;0.50;;;;;;;;;;5009940;28;20038;-65
2023/05/30 07:34:51;;;;;;;1.10;0.50;;;;;;;;;;5009108;28;20437;-65
2023/05/30 07:37:17;;;;;;;0.75;0.50;;;;;;;;;;5008402;28;20059;-65
2023/05/30 07:39:43;;;;;;;1.42;0.65;;;;;;;;;;5018509;28;20042;-65
2023/05/30 07:42:09;;;;;;;0.40;0.40;;;;;;;;;;5023391;28;20465;-65
2023/05/30 07:44:35;;;;;;;0.45;0.45;;;;;;;;;;5023923;28;20401;-65
2023/05/30 07:47:02;;;;;;;0.65;0.38;;;;;;;;;;5021662;28;20142;-65
2023/05/30 07:49:29;;;;;;;0.55;0.30;;;;;;;;;;5017409;28;20378;-65
2023/05/30 07:51:55;;;;;;;0.30;0.30;;;;;;;;;;4999809;28;20033;-65
2023/05/30 07:54:21;;;;;;;0.20;0.15;;;;;;;;;;5025033;28;20038;-65
2023/05/30 07:56:47;;;;;;;0.20;0.20;;;;;;;;;;5024167;28;20045;-68
2023/05/30 07:59:13;;;;;;;0.10;0.10;;;;;;;;;;5024061;28;20145;-71
2023/05/30 08:01:39;;;;;;;0.40;0.17;;;;;;;;;;5025816;28;20137;-69
2023/05/30 08:04:05;;;;;;;0.10;0.00;;;;;;;;;;4964747;28;20082;-70
2023/05/30 08:06:31;;;;;;;0.10;0.10;;;;;;;;;;4947597;28;20047;-65
2023/05/30 08:08:57;;;;;;;0.00;0.00;;;;;;;;;;4947505;29;20058;-65
2023/05/30 08:11:23;;;;;;;0.00;0.00;;;;;;;;;;4977588;28;20078;-65
2023/05/30 08:13:49;;;;;;;0.10;0.05;;;;;;;;;;4965671;28;20124;-64
2023/05/30 08:16:16;;;;;;;0.35;0.13;;;;;;;;;;4981441;28;20410;-64
2023/05/30 08:18:42;;;;;;;0.08;0.08;;;;;;;;;;4979129;28;20042;-64
2023/05/30 08:21:08;;;;;;;0.20;0.10;;;;;;;;;;4963857;28;20545;-64
2023/05/30 08:23:35;;;;;;;1.20;0.00;;;;;;;;;;4982160;28;20042;-64
2023/05/30 08:26:01;;;;;;;0.32;0.10;;;;;;;;;;4983120;28;20031;-64
2023/05/30 08:28:28;;;;;;;0.10;0.10;;;;;;;;;;4982138;28;20054;-64
2023/05/30 08:30:54;;;;;;;0.00;0.00;;;;;;;;;;4983839;28;20435;-64
2023/05/30 08:33:21;;;;;;;0.17;0.00;;;;;;;;;;4985412;28;20038;-64
2023/05/30 08:35:47;;;;;;;0.15;0.10;;;;;;;;;;4981849;28;20144;-64
2023/05/30 08:38:14;;;;;;;0.85;0.25;;;;;;;;;;4980994;28;20054;-64
2023/05/30 08:40:41;;;;;;;0.52;0.10;;;;;;;;;;4981838;28;20034;-64
2023/05/30 08:43:07;;;;;;;0.10;0.10;;;;;;;;;;4977315;28;20431;-64
2023/05/30 08:45:33;;;;;;;0.10;0.00;;;;;;;;;;4971159;28;20053;-63
2023/05/30 08:47:59;;;;;;;0.10;0.10;;;;;;;;;;4961615;28;20513;-63
2023/05/30 08:50:26;;;;;;;0.57;0.10;;;;;;;;;;4961595;28;20042;-64
2023/05/30 08:52:53;;;;;;;0.20;0.10;;;;;;;;;;4960060;28;20518;-64
2023/05/30 08:55:22;;;;;;;0.20;0.10;;;;;;;;;;4970586;28;20077;-65
2023/05/30 08:57:58;;;;;;;0.00;0.00;;;;;;;;;;4970374;28;20134;-65
2023/05/30 09:00:24;;;;;;;0.00;0.00;;;;;;;;;;4963025;28;20308;-65
2023/05/30 09:02:55;;;;;;;0.05;0.00;;;;;;;;;;4992335;28;20053;-65
2023/05/30 09:05:21;;;;;;;0.32;0.10;;;;;;;;;;5022515;28;20084;-65
2023/05/30 09:07:48;;;;;;;0.10;0.10;;;;;;;;;;5022291;28;20584;-65
2023/05/30 09:10:14;;;;;;;0.50;0.20;;;;;;;;;;5016467;28;20045;-65
2023/05/30 09:12:41;;;;;;;0.03;0.03;;;;;;;;;;5018782;28;20093;-65
2023/05/30 09:15:08;;;;;;;0.50;0.30;;;;;;;;;;5024380;28;20041;-65
2023/05/30 09:17:34;;;;;;;0.40;0.10;;;;;;;;;;5026344;28;20041;-65
2023/05/30 09:20:00;;;;;;;0.47;0.20;;;;;;;;;;5008055;28;20483;-65
2023/05/30 09:22:27;;;;;;;0.55;0.30;;;;;;;;;;5024560;28;20069;-65
2023/05/30 09:25:00;;;;;;;0.35;0.20;;;;;;;;;;5023220;28;20054;-65
2023/05/30 09:27:28;;;;;;;0.10;0.10;;;;;;;;;;5019773;28;20095;-65
2023/05/30 09:29:54;;;;;;;0.38;0.10;;;;;;;;;;5023713;28;20040;-65
2023/05/30 09:32:21;;;;;;;0.05;0.03;;;;;;;;;;5023375;28;20041;-65
2023/05/30 09:34:57;;;;;;;0.10;0.10;;;;;;;;;;5023990;28;20037;-65
2023/05/30 09:37:26;;;;;;;0.15;0.15;;;;;;;;;;5004263;28;20046;-65
2023/05/30 09:40:11;;;;;;;0.47;0.17;;;;;;;;;;5001974;28;20175;-65
2023/05/30 09:42:38;;;;;;;0.10;0.10;;;;;;;;;;5005491;28;20128;-65
2023/05/30 09:45:06;;;;;;;0.10;0.10;;;;;;;;;;5023887;28;20042;-65
2023/05/30 09:47:37;;;;;;;0.22;0.20;;;;;;;;;;5013042;28;20041;-65
2023/05/30 09:50:04;;;;;;;0.30;0.30;;;;;;;;;;5006582;28;20045;-65
2023/05/30 09:52:30;;;;;;;0.50;0.20;;;;;;;;;;5008081;28;20483;-66
2023/05/30 09:54:56;;;;;;;0.40;0.20;;;;;;;;;;5005913;28;20413;-66
2023/05/30 09:57:24;;;;;;;0.20;0.20;;;;;;;;;;5008565;28;20049;-66
2023/05/30 09:59:50;;;;;;;0.10;0.10;;;;;;;;;;5007906;28;20099;-66
2023/05/30 10:02:23;;;;;;;0.45;0.30;;;;;;;;;;5006011;28;20437;-66
2023/05/30 10:04:52;;;;;;;0.30;0.30;;;;;;;;;;5022184;28;20117;-65
2023/05/30 10:07:21;;;;;;;0.50;0.20;;;;;;;;;;5022274;28;20038;-65
2023/05/30 10:09:51;;;;;;;1.23;0.28;;;;;;;;;;5024795;28;20037;-65
2023/05/30 10:12:17;;;;;;;1.13;0.30;;;;;;;;;;5002606;28;20089;-66
2023/05/30 10:14:43;;;;;;;0.45;0.40;;;;;;;;;;5021403;28;20048;-66
2023/05/30 10:17:16;;;;;;;0.85;0.40;;;;;;;;;;5024561;28;20056;-65
2023/05/30 10:19:50;;;;;;;0.25;0.25;;;;;;;;;;5026305;28;20045;-65
2023/05/30 10:22:17;;;;;;;0.30;0.28;;;;;;;;;;5027342;28;20046;-65
2023/05/30 10:24:47;;;;;;;0.40;0.30;;;;;;;;;;5027997;28;20041;-65
2023/05/30 10:27:18;;;;;;;0.70;0.30;;;;;;;;;;5027396;28;20045;-65
2023/05/30 10:29:48;;;;;;;2.17;0.70;;;;;;;;;;5027678;28;20049;-65
2023/05/30 10:32:19;;;;;;;0.38;0.30;;;;;;;;;;5028017;28;20332;-65
2023/05/30 10:34:53;;;;;;;0.30;0.30;;;;;;;;;;5027209;28;20400;-65
2023/05/30 10:37:20;;;;;;;1.45;0.30;;;;;;;;;;5026348;28;20115;-65
2023/05/30 10:40:06;;;;;;;0.38;0.38;;;;;;;;;;5025531;28;20041;-65
2023/05/30 10:42:37;;;;;;;1.15;0.40;;;;;;;;;;5025338;28;20049;-65
2023/05/30 10:45:12;;;;;;;0.20;0.20;;;;;;;;;;5024439;28;20067;-65
2023/05/30 10:47:59;;;;;;;0.30;0.30;;;;;;;;;;5026281;28;20045;-65
2023/05/30 10:50:34;;;;;;;0.10;0.10;;;;;;;;;;5026919;28;20099;-65
2023/05/30 10:53:00;;;;;;;0.20;0.10;;;;;;;;;;5018345;28;20033;-65
2023/05/30 10:55:28;;;;;;;0.10;0.10;;;;;;;;;;5004367;28;20909;-65
2023/05/30 10:57:54;;;;;;;0.10;0.10;;;;;;;;;;5010727;28;20449;-65
2023/05/30 11:00:24;;;;;;;0.08;0.08;;;;;;;;;;5006125;28;20046;-65
2023/05/30 11:02:54;;;;;;;0.00;0.00;;;;;;;;;;5005294;28;20402;-65
2023/05/30 11:05:32;;;;;;;0.10;0.10;;;;;;;;;;5006510;28;20049;-65
2023/05/30 11:08:00;;;;;;;0.15;0.13;;;;;;;;;;5005253;28;20077;-66
2023/05/30 11:10:27;;;;;;;0.85;0.10;;;;;;;;;;5004876;28;20453;-66
2023/05/30 11:12:53;;;;;;;1.27;0.10;;;;;;;;;;5004809;28;20049;-66
2023/05/30 11:15:31;;;;;;;0.10;0.10;;;;;;;;;;5005173;28;20052;-65
2023/05/30 11:17:57;;;;;;;0.32;0.10;;;;;;;;;;5016306;28;20136;-66
2023/05/30 11:20:23;;;;;;;0.10;0.10;;;;;;;;;;5007813;28;20034;-66
2023/05/30 11:23:01;;;;;;;0.10;0.10;;;;;;;;;;5006429;28;20517;-66
2023/05/30 11:25:28;;;;;;;0.60;0.30;;;;;;;;;;5004982;28;20046;-66
2023/05/30 11:28:04;;;;;;;0.20;0.20;;;;;;;;;;5007040;28;20037;-66
2023/05/30 11:30:35;;;;;;;0.35;0.20;;;;;;;;;;4983154;28;20049;-66
2023/05/30 11:33:01;;;;;;;0.40;0.30;;;;;;;;;;5006981;28;20050;-66
2023/05/30 11:35:27;;;;;;;0.20;0.20;;;;;;;;;;4984732;28;20045;-66
2023/05/30 11:37:55;;;;;;;1.88;0.50;;;;;;;;;;5005717;28;20041;-66
2023/05/30 11:40:24;;;;;;;0.30;0.20;;;;;;;;;;5003095;28;20483;-66
2023/05/30 11:42:54;;;;;;;0.20;0.20;;;;;;;;;;4987631;28;20038;-66
2023/05/30 11:45:27;;;;;;;0.50;0.50;;;;;;;;;;4986794;28;20580;-66
2023/05/30 11:47:53;;;;;;;0.25;0.20;;;;;;;;;;4987141;28;20042;-67
2023/05/30 11:50:20;;;;;;;0.38;0.35;;;;;;;;;;4970292;28;20051;-67
2023/05/30 11:52:46;;;;;;;0.25;0.25;;;;;;;;;;4986971;28;20122;-67
2023/05/30 11:55:12;;;;;;;0.32;0.32;;;;;;;;;;4987706;28;20125;-67
2023/05/30 11:57:38;;;;;;;0.30;0.30;;;;;;;;;;4991315;28;20051;-67
2023/05/30 12:00:13;;;;;;;0.30;0.30;;;;;;;;;;5003106;28;20366;-67
2023/05/30 12:02:40;;;;;;;0.40;0.30;;;;;;;;;;5004141;28;20085;-67
2023/05/30 12:05:06;;;;;;;0.45;0.30;;;;;;;;;;4998896;28;20084;-67
2023/05/30 12:07:32;;;;;;;0.30;0.30;;;;;;;;;;4974220;28;20085;-67
2023/05/30 12:09:59;;;;;;;0.28;0.28;;;;;;;;;;4978028;28;20049;-67
2023/05/30 12:12:26;;;;;;;0.30;0.30;;;;;;;;;;4996610;28;20118;-67
2023/05/30 12:14:55;;;;;;;1.45;0.40;;;;;;;;;;4974233;28;20505;-67
2023/05/30 12:17:22;;;;;;;0.40;0.30;;;;;;;;;;4992091;28;20030;-67
2023/05/30 12:19:55;;;;;;;0.15;0.15;;;;;;;;;;5000818;28;20133;-67
2023/05/30 12:22:22;;;;;;;0.13;0.10;;;;;;;;;;5005014;28;20061;-67
2023/05/30 12:24:49;;;;;;;0.30;0.30;;;;;;;;;;4997764;28;20517;-67
2023/05/30 12:27:28;;;;;;;0.20;0.20;;;;;;;;;;5002432;28;20044;-67
2023/05/30 12:29:54;;;;;;;0.20;0.20;;;;;;;;;;5004470;28;20042;-67
2023/05/30 12:32:23;;;;;;;0.20;0.20;;;;;;;;;;5001245;28;20038;-67
2023/05/30 12:34:49;;;;;;;0.30;0.30;;;;;;;;;;5002608;28;20041;-57
2023/05/30 12:37:17;;;;;;;0.52;0.30;;;;;;;;;;4998161;28;20038;-57
2023/05/30 12:39:45;;;;;;;0.82;0.32;;;;;;;;;;4999899;28;20454;-58
2023/05/30 12:42:11;;;;;;;0.65;0.40;;;;;;;;;;4998296;28;20583;-58
2023/05/30 12:44:48;;;;;;;0.52;0.30;;;;;;;;;;5004707;28;20121;-57
2023/05/30 12:47:15;;;;;;;0.63;0.30;;;;;;;;;;4999459;28;20046;-58
2023/05/30 12:49:41;;;;;;;0.40;0.20;;;;;;;;;;5002786;28;20038;-57
2023/05/30 12:52:08;;;;;;;0.60;0.20;;;;;;;;;;4985929;28;20355;-60
2023/05/30 12:54:35;;;;;;;0.47;0.40;;;;;;;;;;4991418;28;20042;-60
2023/05/30 12:57:01;;;;;;;0.30;0.30;;;;;;;;;;4991369;28;20125;-59
2023/05/30 12:59:27;;;;;;;0.30;0.30;;;;;;;;;;5002640;28;20683;-60
2023/05/30 13:01:54;;;;;;;0.30;0.30;;;;;;;;;;4998280;28;20045;-60
2023/05/30 13:04:20;;;;;;;1.73;0.40;;;;;;;;;;4998852;28;20565;-60
2023/05/30 13:06:46;;;;;;;0.40;0.40;;;;;;;;;;4997592;28;20034;-60
2023/05/30 13:09:12;;;;;;;0.32;0.30;;;;;;;;;;4998624;28;20049;-60
2023/05/30 13:11:38;;;;;;;0.75;0.40;;;;;;;;;;4987602;28;20123;-62
2023/05/30 13:14:04;;;;;;;0.98;0.40;;;;;;;;;;4991640;28;20037;-62
2023/05/30 13:16:31;;;;;;;0.30;0.30;;;;;;;;;;5019510;28;20406;-62
2023/05/30 13:18:57;;;;;;;0.52;0.30;;;;;;;;;;5003341;28;20042;-62
2023/05/30 13:21:23;;;;;;;0.70;0.47;;;;;;;;;;4992696;28;20054;-62
2023/05/30 13:23:49;;;;;;;0.20;0.20;;;;;;;;;;4989123;28;20422;-62
2023/05/30 13:26:15;;;;;;;0.40;0.38;;;;;;;;;;4989348;28;20320;-62
2023/05/30 13:28:41;;;;;;;0.90;0.40;;;;;;;;;;4997288;28;20049;-62
2023/05/30 13:31:07;;;;;;;0.43;0.40;;;;;;;;;;5008132;28;20461;-63
2023/05/30 13:33:34;;;;;;;0.98;0.38;;;;;;;;;;5001951;28;20046;-63
2023/05/30 13:36:00;;;;;;;0.50;0.50;;;;;;;;;;4977654;28;20050;-63
2023/05/30 13:38:28;;;;;;;0.82;0.40;;;;;;;;;;4992413;28;20033;-63
2023/05/30 13:40:54;;;;;;;0.40;0.40;;;;;;;;;;4999491;28;20042;-63
2023/05/30 13:43:21;;;;;;;0.50;0.50;;;;;;;;;;5006894;28;20482;-63
2023/05/30 13:45:47;;;;;;;1.30;0.47;;;;;;;;;;5010389;28;20072;-63
2023/05/30 13:48:19;;;;;;;0.60;0.60;;;;;;;;;;5010017;28;20160;-63
2023/05/30 13:50:46;;;;;;;0.40;0.40;;;;;;;;;;5021388;28;20049;-63
2023/05/30 13:53:12;;;;;;;0.45;0.45;;;;;;;;;;5012440;28;20088;-63
2023/05/30 13:55:39;;;;;;;0.30;0.30;;;;;;;;;;4991597;28;20429;-63
2023/05/30 13:58:05;;;;;;;0.77;0.40;;;;;;;;;;5003988;28;20455;-63
2023/05/30 14:00:30;;;;;;;0.60;0.50;;;;;;;;;;4995661;28;20379;-63
2023/05/30 14:02:57;;;;;;;0.30;0.30;;;;;;;;;;4999346;28;20064;-63
2023/05/30 14:05:24;;;;;;;0.40;0.40;;;;;;;;;;4995620;28;20057;-63
2023/05/30 14:07:50;;;;;;;0.35;0.28;;;;;;;;;;4998503;28;20442;-63
2023/05/30 14:10:20;;;;;;;0.30;0.30;;;;;;;;;;4999250;28;20491;-63
2023/05/30 14:12:46;;;;;;;0.25;0.25;;;;;;;;;;5000576;28;20034;-63
2023/05/30 14:15:13;;;;;;;0.30;0.30;;;;;;;;;;4999713;28;20073;-63
2023/05/30 14:17:39;;;;;;;0.30;0.30;;;;;;;;;;4992047;28;20057;-63
2023/05/30 14:20:06;;;;;;;0.95;0.50;;;;;;;;;;4997060;28;20236;-62
2023/05/30 14:22:32;;;;;;;0.30;0.30;;;;;;;;;;5004131;28;20495;-62
2023/05/30 14:24:58;;;;;;;0.30;0.30;;;;;;;;;;5010534;28;20099;-62
2023/05/30 14:27:24;;;;;;;1.65;0.50;;;;;;;;;;5007425;28;20478;-62
2023/05/30 14:29:51;;;;;;;0.57;0.30;;;;;;;;;;4994801;28;20041;-62
2023/05/30 14:32:17;;;;;;;0.52;0.52;;;;;;;;;;5013373;28;20471;-61
2023/05/30 14:34:43;;;;;;;0.40;0.40;;;;;;;;;;5005161;28;20049;-64
2023/05/30 14:37:09;;;;;;;2.13;0.60;;;;;;;;;;5022988;28;20045;-58
2023/05/30 14:39:35;;;;;;;0.60;0.50;;;;;;;;;;5021385;28;20371;-57
2023/05/30 14:42:01;;;;;;;1.02;0.38;;;;;;;;;;5021614;28;20032;-57
2023/05/30 14:44:27;;;;;;;0.88;0.57;;;;;;;;;;5003766;28;20045;-57